createdAt,value
2018-04-10T00:00:16.775Z,21.65
2018-04-10T00:02:44.544Z,20.48
2018-04-10T00:05:12.394Z,19.58
2018-04-10T00:07:40.940Z,21.40
2018-04-10T00:10:08.723Z,21.08
2018-04-10T00:12:36.590Z,20.02
2018-04-10T00:15:04.356Z,20.90
2018-04-10T00:17:32.129Z,21.02
2018-04-10T00:19:59.958Z,19.08
2018-04-10T00:22:27.729Z,18.92
2018-04-10T00:24:55.502Z,18.50
2018-04-10T00:27:23.321Z,18.27
2018-04-10T00:29:51.747Z,17.35
2018-04-10T00:32:19.509Z,18.75
2018-04-10T00:34:47.327Z,19.12
2018-04-10T00:37:15.089Z,17.15
2018-04-10T00:39:42.853Z,16.60
2018-04-10T00:42:10.686Z,17.45
2018-04-10T00:44:39.229Z,16.45
2018-04-10T00:47:07.008Z,16.70
2018-04-10T00:49:34.857Z,18.08
2018-04-10T00:52:02.613Z,16.40
2018-04-10T00:54:30.382Z,17.17
2018-04-10T00:56:58.249Z,17.08
2018-04-10T00:59:26.020Z,18.10
2018-04-10T01:01:53.790Z,17.20
2018-04-10T01:04:21.617Z,16.12
2018-04-10T01:06:49.392Z,17.62
2018-04-10T01:09:17.165Z,17.83
2018-04-10T01:11:45.209Z,17.02
2018-04-10T01:14:12.997Z,16.62
2018-04-10T01:16:40.773Z,16.52
2018-04-10T01:19:08.629Z,17.52
2018-04-10T01:21:36.418Z,16.73
2018-04-10T01:24:04.233Z,17.67
2018-04-10T01:26:32.049Z,16.45
2018-04-10T01:29:00.597Z,17.75
2018-04-10T01:31:28.370Z,15.13
2018-04-10T01:33:56.439Z,15.82
2018-04-10T01:36:24.209Z,16.15
2018-04-10T01:38:52.749Z,15.75
2018-04-10T01:41:20.734Z,16.15
2018-04-10T01:43:49.261Z,16.75
2018-04-10T01:46:17.038Z,15.63
2018-04-10T01:48:44.923Z,15.20
2018-04-10T01:51:12.688Z,14.07
2018-04-10T01:53:40.464Z,14.87
2018-04-10T01:56:08.296Z,17.27
2018-04-10T01:58:36.064Z,16.17
2018-04-10T02:01:03.836Z,18.23
2018-04-10T02:03:31.662Z,15.45
2018-04-10T02:05:59.440Z,15.10
2018-04-10T02:08:27.211Z,17.30
2018-04-10T02:10:55.032Z,17.92
2018-04-10T02:13:23.561Z,17.27
2018-04-10T02:15:51.341Z,15.90
2018-04-10T02:18:19.164Z,18.77
2018-04-10T02:20:46.933Z,17.95
2018-04-10T02:23:14.705Z,18.25
2018-04-10T02:25:42.552Z,19.00
2018-04-10T02:28:10.328Z,18.90
2018-04-10T02:30:38.116Z,19.60
2018-04-10T02:33:05.945Z,18.95
2018-04-10T02:35:33.721Z,18.98
2018-04-10T02:38:01.505Z,21.48
2018-04-10T02:40:29.346Z,17.35
2018-04-10T02:42:57.882Z,18.48
2018-04-10T02:45:26.407Z,19.60
2018-04-10T02:47:54.253Z,18.77
2018-04-10T02:50:22.026Z,18.90
2018-04-10T02:52:49.804Z,20.17
2018-04-10T02:55:17.636Z,18.60
2018-04-10T02:57:45.415Z,19.75
2018-04-10T03:00:13.182Z,18.67
2018-04-10T03:02:41.020Z,18.73
2018-04-10T03:05:08.792Z,19.60
2018-04-10T03:07:36.580Z,19.70
2018-04-10T03:10:04.500Z,19.40
2018-04-10T03:12:33.021Z,18.55
2018-04-10T03:15:00.779Z,18.05
2018-04-10T03:17:28.593Z,18.62
2018-04-10T03:19:57.139Z,18.08
2018-04-10T03:22:24.912Z,19.90
2018-04-10T03:24:52.757Z,17.87
2018-04-10T03:27:20.550Z,19.35
2018-04-10T03:29:48.317Z,19.10
2018-04-10T03:32:16.906Z,18.92
2018-04-10T03:34:45.470Z,19.25
2018-04-10T03:37:13.221Z,18.95
2018-04-10T03:39:41.040Z,19.20
2018-04-10T03:42:08.810Z,19.10
2018-04-10T03:44:36.584Z,19.70
2018-04-10T03:47:04.399Z,17.65
2018-04-10T03:49:32.945Z,19.25
2018-04-10T03:52:01.500Z,17.98
2018-04-10T03:54:29.321Z,18.30
2018-04-10T03:56:57.872Z,18.48
2018-04-10T03:59:25.671Z,18.98
2018-04-10T04:01:54.270Z,18.83
2018-04-10T04:04:22.053Z,17.62
2018-04-10T04:06:49.821Z,18.60
2018-04-10T04:09:17.645Z,18.25
2018-04-10T04:11:45.417Z,20.08
2018-04-10T04:14:13.197Z,20.62
2018-04-10T04:16:52.968Z,19.83
2018-04-10T04:19:32.504Z,19.42
2018-04-10T04:22:12.133Z,19.10
2018-04-10T04:24:39.933Z,20.27
2018-04-10T04:27:08.473Z,20.55
2018-04-10T04:29:36.313Z,18.35
2018-04-10T04:32:05.728Z,20.77
2018-04-10T04:34:33.509Z,21.37
2018-04-10T04:37:01.334Z,19.98
2018-04-10T04:39:29.107Z,19.65
2018-04-10T04:41:56.884Z,18.50
2018-04-10T04:44:24.729Z,21.35
2018-04-10T04:46:52.514Z,19.85
2018-04-10T04:49:20.287Z,19.27
2018-04-10T04:51:48.113Z,19.08
2018-04-10T04:54:15.887Z,18.05
2018-04-10T04:56:43.657Z,19.40
2018-04-10T04:59:11.482Z,19.73
2018-04-10T05:01:39.272Z,21.10
2018-04-10T05:04:07.054Z,19.40
2018-04-10T05:06:34.925Z,17.33
2018-04-10T05:09:03.505Z,19.60
2018-04-10T05:11:31.313Z,16.73
2018-04-10T05:13:59.139Z,17.40
2018-04-10T05:16:26.952Z,17.23
2018-04-10T05:18:54.758Z,17.42
2018-04-10T05:21:22.593Z,18.80
2018-04-10T05:23:50.369Z,18.37
2018-04-10T05:26:18.172Z,16.40
2018-04-10T05:28:46.776Z,18.25
2018-04-10T05:31:14.561Z,17.12
2018-04-10T05:33:42.406Z,17.80
2018-04-10T05:36:10.260Z,17.45
2018-04-10T05:38:38.810Z,16.30
2018-04-10T05:41:06.580Z,15.80
2018-04-10T05:43:35.172Z,16.73
2018-04-10T05:46:03.704Z,15.35
2018-04-10T05:48:31.486Z,14.02
2018-04-10T05:50:59.412Z,15.48
2018-04-10T05:53:27.277Z,15.48
2018-04-10T05:55:55.052Z,16.15
2018-04-10T05:58:23.247Z,17.23
2018-04-10T06:00:51.045Z,16.67
2018-04-10T06:03:19.603Z,15.52
2018-04-10T06:05:47.442Z,15.50
2018-04-10T06:08:15.233Z,15.98
2018-04-10T06:10:43.001Z,16.23
2018-04-10T06:13:11.593Z,15.38
2018-04-10T06:15:40.204Z,16.95
2018-04-10T06:18:08.001Z,16.52
2018-04-10T06:20:35.846Z,15.15
2018-04-10T06:23:04.004Z,16.05
2018-04-10T06:25:31.814Z,15.75
2018-04-10T06:27:59.648Z,17.02
2018-04-10T06:30:27.430Z,15.10
2018-04-10T06:32:55.208Z,15.45
2018-04-10T06:35:23.030Z,15.77
2018-04-10T06:37:50.826Z,15.35
2018-04-10T06:40:18.670Z,15.20
2018-04-10T06:42:46.525Z,13.75
2018-04-10T06:45:14.420Z,14.73
2018-04-10T06:47:42.220Z,14.55
2018-04-10T06:50:10.053Z,14.90
2018-04-10T06:52:37.905Z,14.55
2018-04-10T06:55:05.693Z,13.82
2018-04-10T06:57:34.353Z,14.63
2018-04-10T07:00:02.136Z,14.02
2018-04-10T07:02:30.711Z,14.65
2018-04-10T07:04:59.309Z,12.90
2018-04-10T07:07:27.110Z,15.13
2018-04-10T07:09:55.653Z,13.38
2018-04-10T07:12:23.602Z,14.07
2018-04-10T07:14:51.488Z,12.75
2018-04-10T07:17:19.343Z,13.15
2018-04-10T07:19:47.226Z,13.60
2018-04-10T07:22:15.443Z,14.35
2018-04-10T07:24:44.070Z,13.48
2018-04-10T07:27:12.397Z,13.03
2018-04-10T07:29:40.203Z,14.67
2018-04-10T07:32:08.006Z,12.10
2018-04-10T07:34:35.824Z,12.80
2018-04-10T07:37:04.363Z,12.60
2018-04-10T07:39:32.127Z,12.37
2018-04-10T07:42:00.076Z,12.40
2018-04-10T07:44:28.800Z,12.37
2018-04-10T07:46:56.602Z,13.07
2018-04-10T07:49:24.440Z,12.93
2018-04-10T07:51:52.812Z,11.70
2018-04-10T07:54:21.976Z,11.80
2018-04-10T07:56:50.661Z,12.97
2018-04-10T07:59:19.325Z,10.90
2018-04-10T08:01:48.381Z,9.48
2018-04-10T08:04:16.723Z,9.90
2018-04-10T08:06:45.915Z,12.00
2018-04-10T08:09:14.541Z,9.87
2018-04-10T08:11:42.704Z,6.03
2018-04-10T08:14:10.505Z,6.80
2018-04-10T08:16:39.408Z,7.60
2018-04-10T08:19:07.296Z,7.13
2018-04-10T08:21:35.829Z,6.43
2018-04-10T08:24:03.600Z,5.72
2018-04-10T08:26:31.419Z,6.53
2018-04-10T08:28:59.189Z,5.85
2018-04-10T08:31:26.957Z,6.50
2018-04-10T08:33:54.799Z,6.20
2018-04-10T08:36:23.339Z,4.82
2018-04-10T08:38:51.137Z,5.18
2018-04-10T08:41:19.722Z,4.40
2018-04-10T08:43:48.291Z,4.45
2018-04-10T08:46:16.849Z,4.57
2018-04-10T08:48:44.785Z,4.43
2018-04-10T08:51:12.578Z,3.65
2018-04-10T08:53:40.395Z,4.43
2018-04-10T08:56:08.228Z,3.05
2018-04-10T08:58:36.802Z,3.40
2018-04-10T09:01:05.392Z,3.60
2018-04-10T09:03:34.013Z,4.45
2018-04-10T09:06:01.825Z,4.12
2018-04-10T09:08:30.382Z,3.95
2018-04-10T09:10:58.239Z,3.83
2018-04-10T09:13:26.040Z,3.53
2018-04-10T09:15:55.211Z,3.78
2018-04-10T09:18:23.055Z,3.25
2018-04-10T09:20:50.886Z,3.25
2018-04-10T09:23:18.665Z,3.10
2018-04-10T09:25:46.485Z,3.50
2018-04-10T09:28:15.034Z,3.70
2018-04-10T09:30:42.799Z,3.00
2018-04-10T09:33:10.617Z,3.30
2018-04-10T09:35:38.426Z,3.80
2018-04-10T09:38:06.216Z,3.35
2018-04-10T09:40:34.805Z,3.58
2018-04-10T09:43:03.355Z,3.12
2018-04-10T09:45:31.145Z,3.60
2018-04-10T09:47:59.725Z,3.17
2018-04-10T09:50:28.292Z,3.50
2018-04-10T09:52:56.062Z,3.15
2018-04-10T09:55:23.900Z,4.55
2018-04-10T09:57:51.686Z,4.43
2018-04-10T10:00:25.130Z,3.00
2018-04-10T10:02:52.923Z,3.67
2018-04-10T10:05:20.696Z,3.25
2018-04-10T10:07:48.522Z,2.80
2018-04-10T10:10:16.289Z,2.97
2018-04-10T10:12:44.101Z,2.42
2018-04-10T10:15:12.697Z,3.05
2018-04-10T10:17:41.235Z,2.47
2018-04-10T10:20:09.006Z,3.05
2018-04-10T10:22:36.844Z,2.80
2018-04-10T10:25:05.382Z,2.53
2018-04-10T10:27:33.942Z,3.70
2018-04-10T10:30:02.527Z,2.80
2018-04-10T10:32:30.282Z,2.30
2018-04-10T10:34:58.821Z,2.47
2018-04-10T10:37:26.638Z,2.15
2018-04-10T10:39:55.175Z,2.33
2018-04-10T10:42:22.960Z,2.47
2018-04-10T10:44:50.797Z,3.58
2018-04-10T10:47:19.333Z,2.40
2018-04-10T10:49:47.861Z,2.40
2018-04-10T10:52:16.452Z,2.47
2018-04-10T10:54:44.228Z,2.75
2018-04-10T10:57:11.998Z,1.83
2018-04-10T10:59:39.838Z,3.47
2018-04-10T11:02:07.611Z,2.25
2018-04-10T11:04:35.383Z,2.30
2018-04-10T11:07:03.978Z,3.25
2018-04-10T11:09:31.786Z,2.90
2018-04-10T11:11:59.616Z,2.15
2018-04-10T11:14:27.426Z,2.53
2018-04-10T11:16:55.188Z,3.00
2018-04-10T11:19:22.941Z,2.40
2018-04-10T11:21:50.761Z,2.35
2018-04-10T11:24:18.541Z,2.40
2018-04-10T11:26:46.307Z,2.72
2018-04-10T11:29:14.170Z,2.97
2018-04-10T11:31:41.934Z,3.03
2018-04-10T11:34:09.724Z,2.87
2018-04-10T11:36:37.568Z,2.78
2018-04-10T11:39:06.287Z,2.55
2018-04-10T11:41:34.101Z,2.53
2018-04-10T11:44:01.932Z,2.80
2018-04-10T11:46:29.719Z,2.80
2018-04-10T11:48:57.493Z,2.70
2018-04-10T11:51:25.322Z,2.95
2018-04-10T11:53:53.870Z,3.40
2018-04-10T11:56:21.629Z,2.50
2018-04-10T11:58:49.449Z,2.53
2018-04-10T12:01:17.218Z,2.70
2018-04-10T12:03:45.004Z,3.60
2018-04-10T12:06:12.818Z,2.50
2018-04-10T12:08:41.366Z,3.30
2018-04-10T12:11:09.133Z,3.33
2018-04-10T12:13:36.966Z,2.55
2018-04-10T12:16:04.759Z,2.87
2018-04-10T12:18:32.532Z,2.40
2018-04-10T12:21:00.406Z,2.62
2018-04-10T12:23:28.943Z,2.72
2018-04-10T12:25:56.714Z,3.35
2018-04-10T12:28:25.314Z,3.08
2018-04-10T12:30:53.080Z,3.65
2018-04-10T12:33:20.841Z,2.22
2018-04-10T12:35:48.666Z,3.42
2018-04-10T12:38:16.433Z,2.78
2018-04-10T12:40:44.198Z,2.15
2018-04-10T12:43:12.017Z,2.60
2018-04-10T12:45:40.549Z,3.05
2018-04-10T12:48:08.345Z,3.17
2018-04-10T12:50:36.936Z,2.83
2018-04-10T12:53:04.725Z,2.35
2018-04-10T12:55:32.531Z,3.10
2018-04-10T12:58:00.353Z,2.42
2018-04-10T13:00:28.158Z,2.67
2018-04-10T13:02:55.929Z,2.10
2018-04-10T13:05:23.743Z,2.00
2018-04-10T13:07:51.521Z,2.70
2018-04-10T13:10:19.307Z,3.00
2018-04-10T13:12:47.125Z,2.05
2018-04-10T13:15:14.965Z,2.50
2018-04-10T13:17:43.501Z,2.25
2018-04-10T13:20:11.330Z,3.25
2018-04-10T13:22:39.105Z,2.83
2018-04-10T13:25:06.865Z,2.05
2018-04-10T13:27:34.717Z,2.50
2018-04-10T13:30:02.501Z,3.10
2018-04-10T13:32:30.307Z,2.55
2018-04-10T13:34:58.920Z,2.40
2018-04-10T13:37:26.695Z,3.80
2018-04-10T13:39:54.477Z,2.47
2018-04-10T13:42:22.288Z,2.62
2018-04-10T13:44:50.820Z,2.37
2018-04-10T13:47:18.598Z,2.47
2018-04-10T13:49:46.417Z,2.47
2018-04-10T13:52:14.187Z,2.75
2018-04-10T13:54:41.963Z,2.70
2018-04-10T13:57:10.253Z,2.12
2018-04-10T13:59:38.076Z,2.20
2018-04-10T14:02:05.884Z,2.20
2018-04-10T14:04:33.748Z,1.85
2018-04-10T14:07:01.540Z,2.60
2018-04-10T14:09:30.080Z,2.40
2018-04-10T14:11:57.913Z,2.05
2018-04-10T14:14:25.673Z,2.42
2018-04-10T14:16:53.435Z,2.10
2018-04-10T14:19:21.262Z,2.90
2018-04-10T14:21:49.822Z,2.17
2018-04-10T14:24:17.585Z,2.83
2018-04-10T14:26:45.447Z,2.03
2018-04-10T14:29:13.227Z,3.10
2018-04-10T14:31:41.019Z,2.42
2018-04-10T14:34:08.948Z,2.47
2018-04-10T14:36:36.755Z,1.98
2018-04-10T14:39:04.552Z,2.83
2018-04-10T14:41:32.376Z,2.60
2018-04-10T14:44:00.188Z,2.72
2018-04-10T14:46:27.961Z,2.45
2018-04-10T14:48:55.785Z,3.00
2018-04-10T14:51:23.544Z,3.05
2018-04-10T14:53:51.335Z,3.37
2018-04-10T14:56:19.167Z,3.25
2018-04-10T14:58:46.928Z,3.03
2018-04-10T15:03:56.802Z,8.15
2018-04-10T15:06:24.598Z,8.18
2018-04-10T15:08:52.372Z,4.60
2018-04-10T15:11:20.233Z,3.10
2018-04-10T15:13:47.999Z,2.70
2018-04-10T15:16:16.538Z,3.30
2018-04-10T15:18:44.393Z,3.33
2018-04-10T15:21:12.162Z,2.40
2018-04-10T15:23:39.933Z,3.10
2018-04-10T15:26:07.772Z,2.30
2018-04-10T15:28:35.539Z,2.87
2018-04-10T15:31:03.317Z,2.58
2018-04-10T15:33:31.132Z,2.80
2018-04-10T15:35:59.671Z,3.12
2018-04-10T15:38:27.449Z,3.00
2018-04-10T15:40:55.459Z,3.08
2018-04-10T15:43:23.379Z,2.65
2018-04-10T15:45:51.953Z,2.78
2018-04-10T15:48:19.794Z,3.05
2018-04-10T15:50:47.580Z,2.67
2018-04-10T15:53:15.370Z,3.25
2018-04-10T15:55:43.955Z,2.72
2018-04-10T15:58:12.487Z,3.87
2018-04-10T16:00:40.265Z,2.55
2018-04-10T16:03:08.105Z,3.17
2018-04-10T16:05:35.889Z,2.85
2018-04-10T16:08:03.709Z,3.42
2018-04-10T16:10:31.557Z,3.28
2018-04-10T16:12:59.320Z,3.12
2018-04-10T16:15:27.098Z,4.32
2018-04-10T16:17:54.930Z,4.07
2018-04-10T16:20:23.480Z,6.18
2018-04-10T16:22:51.633Z,5.70
2018-04-10T16:25:19.807Z,3.90
2018-04-10T16:27:47.577Z,4.50
2018-04-10T16:30:15.346Z,3.95
2018-04-10T16:32:43.172Z,4.70
2018-04-10T16:35:10.939Z,4.40
2018-04-10T16:37:38.710Z,4.55
2018-04-10T16:40:06.580Z,3.70
2018-04-10T16:42:34.347Z,5.05
2018-04-10T16:45:02.100Z,3.30
2018-04-10T16:47:29.943Z,3.70
2018-04-10T16:49:57.714Z,4.50
2018-04-10T16:52:25.513Z,5.05
2018-04-10T16:54:53.360Z,3.42
2018-04-10T16:57:21.143Z,3.95
2018-04-10T16:59:49.737Z,4.70
2018-04-10T17:02:18.349Z,3.72
2018-04-10T17:04:46.110Z,3.95
2018-04-10T17:07:13.896Z,3.15
2018-04-10T17:09:41.723Z,4.45
2018-04-10T17:12:10.252Z,4.20
2018-04-10T17:14:38.069Z,5.07
2018-04-10T17:17:06.686Z,4.53
2018-04-10T17:19:34.509Z,4.97
2018-04-10T17:22:03.157Z,3.62
2018-04-10T17:24:31.007Z,4.45
2018-04-10T17:26:58.787Z,4.05
2018-04-10T17:29:26.575Z,4.82
2018-04-10T17:31:55.179Z,3.80
2018-04-10T17:34:22.986Z,3.85
2018-04-10T17:36:50.755Z,4.40
2018-04-10T17:39:18.575Z,4.40
2018-04-10T17:41:46.386Z,4.35
2018-04-10T17:44:14.148Z,4.37
2018-04-10T17:46:42.940Z,4.20
2018-04-10T17:49:10.717Z,4.50
2018-04-10T17:51:39.337Z,4.40
2018-04-10T17:54:07.312Z,5.03
2018-04-10T17:56:35.073Z,4.22
2018-04-10T17:59:02.975Z,4.50
2018-04-10T18:01:30.834Z,4.90
2018-04-10T18:03:58.600Z,3.55
2018-04-10T18:06:26.369Z,4.50
2018-04-10T18:08:54.972Z,4.30
2018-04-10T18:11:22.745Z,4.80
2018-04-10T18:13:50.532Z,4.65
2018-04-10T18:16:18.372Z,4.75
2018-04-10T18:18:46.170Z,4.05
2018-04-10T18:21:13.975Z,5.70
2018-04-10T18:23:42.590Z,5.65
2018-04-10T18:26:10.419Z,5.78
2018-04-10T18:28:38.236Z,6.22
2018-04-10T18:31:06.097Z,5.40
2018-04-10T18:33:34.865Z,5.05
2018-04-10T18:36:02.998Z,5.43
2018-04-10T18:38:32.157Z,6.80
2018-04-10T18:41:00.572Z,5.43
2018-04-10T18:43:28.972Z,5.85
2018-04-10T18:45:58.185Z,5.40
2018-04-10T18:48:27.821Z,5.90
2018-04-10T18:50:56.710Z,7.35
2018-04-10T18:53:26.014Z,5.90
2018-04-10T18:55:54.196Z,5.40
2018-04-10T18:58:22.395Z,5.82
2018-04-10T19:00:50.698Z,7.03
2018-04-10T19:03:19.832Z,6.55
2018-04-10T19:05:47.677Z,6.78
2018-04-10T19:08:16.026Z,6.28
2018-04-10T19:10:44.635Z,6.22
2018-04-10T19:13:12.680Z,6.05
2018-04-10T19:15:40.533Z,7.80
2018-04-10T19:18:08.310Z,6.43
2018-04-10T19:20:36.137Z,6.00
2018-04-10T19:23:04.021Z,6.15
2018-04-10T19:25:31.868Z,7.00
2018-04-10T19:28:00.282Z,6.47
2018-04-10T19:30:29.072Z,5.90
2018-04-10T19:32:57.638Z,5.05
2018-04-10T19:35:25.444Z,6.12
2018-04-10T19:37:53.326Z,7.95
2018-04-10T19:40:21.870Z,7.43
2018-04-10T19:42:49.668Z,7.43
2018-04-10T19:45:18.293Z,8.98
2018-04-10T19:47:46.064Z,7.18
2018-04-10T19:50:13.867Z,7.10
2018-04-10T19:52:42.503Z,8.02
2018-04-10T19:55:10.348Z,7.40
2018-04-10T19:57:38.128Z,8.20
2018-04-10T20:00:05.949Z,8.15
2018-04-10T20:02:34.572Z,8.38
2018-04-10T20:05:02.363Z,8.18
2018-04-10T20:07:30.208Z,7.00
2018-04-10T20:09:58.102Z,8.70
2018-04-10T20:12:26.044Z,8.00
2018-04-10T20:14:54.175Z,6.97
2018-04-10T20:17:21.982Z,9.27
2018-04-10T20:19:49.869Z,6.93
2018-04-10T20:22:17.978Z,7.50
2018-04-10T20:24:45.778Z,6.97
2018-04-10T20:27:13.564Z,6.90
2018-04-10T20:29:41.527Z,7.97
2018-04-10T20:32:10.039Z,6.10
2018-04-10T20:34:37.919Z,7.25
2018-04-10T20:37:06.010Z,6.65
2018-04-10T20:39:33.780Z,7.72
2018-04-10T20:42:01.613Z,7.05
2018-04-10T20:44:29.468Z,6.00
2018-04-10T20:46:57.299Z,6.30
2018-04-10T20:49:25.083Z,6.57
2018-04-10T20:51:52.927Z,6.25
2018-04-10T20:54:21.579Z,6.70
2018-04-10T20:56:49.378Z,7.03
2018-04-10T20:59:17.981Z,7.10
2018-04-10T21:01:45.803Z,7.82
2018-04-10T21:04:13.587Z,5.95
2018-04-10T21:06:42.195Z,7.47
2018-04-10T21:09:09.975Z,6.20
2018-04-10T21:11:37.771Z,8.10
2018-04-10T21:14:05.608Z,7.30
2018-04-10T21:16:33.437Z,7.60
2018-04-10T21:19:01.238Z,7.47
2018-04-10T21:21:29.082Z,7.10
2018-04-10T21:23:56.857Z,7.22
2018-04-10T21:26:24.649Z,9.20
2018-04-10T21:28:53.291Z,7.80
2018-04-10T21:31:21.144Z,8.43
2018-04-10T21:33:48.955Z,8.43
2018-04-10T21:36:17.134Z,8.13
2018-04-10T21:38:44.918Z,8.30
2018-04-10T21:41:12.707Z,8.07
2018-04-10T21:43:40.530Z,9.30
2018-04-10T21:46:09.070Z,9.95
2018-04-10T21:48:36.849Z,10.73
2018-04-10T21:51:04.699Z,9.38
2018-04-10T21:53:32.489Z,10.07
2018-04-10T21:56:00.285Z,9.48
2018-04-10T21:58:28.914Z,10.68
2018-04-10T22:00:57.483Z,9.48
2018-04-10T22:03:25.258Z,10.90
2018-04-10T22:05:53.458Z,10.40
2018-04-10T22:08:21.242Z,10.77
2018-04-10T22:10:50.827Z,10.57
2018-04-10T22:13:18.747Z,10.98
2018-04-10T22:15:47.257Z,11.00
2018-04-10T22:18:15.036Z,10.23
2018-04-10T22:20:43.629Z,9.90
2018-04-10T22:23:12.187Z,10.95
2018-04-10T22:25:39.973Z,10.57
2018-04-10T22:28:08.801Z,11.55
2018-04-10T22:30:36.778Z,11.25
2018-04-10T22:33:05.757Z,10.65
2018-04-10T22:41:03.599Z,11.35
2018-04-10T22:43:31.489Z,9.60
2018-04-10T22:45:59.312Z,11.55
2018-04-10T22:48:27.935Z,11.15
2018-04-10T22:50:55.706Z,10.88
2018-04-10T22:53:23.494Z,11.20
2018-04-10T22:55:51.401Z,11.88
2018-04-10T22:58:19.194Z,11.10
2018-04-10T23:00:49.781Z,12.75
2018-04-10T23:03:17.617Z,11.65
2018-04-10T23:05:45.386Z,9.80
2018-04-10T23:08:13.949Z,10.93
2018-04-10T23:10:42.571Z,11.55
2018-04-10T23:13:11.113Z,12.95
2018-04-10T23:15:39.905Z,12.13
2018-04-10T23:18:07.738Z,13.00
2018-04-10T23:20:35.509Z,13.00
2018-04-10T23:23:03.283Z,11.30
2018-04-10T23:25:31.114Z,13.02
2018-04-10T23:27:58.887Z,11.82
2018-04-10T23:30:26.673Z,13.62
2018-04-10T23:32:54.504Z,12.65
2018-04-10T23:35:23.032Z,13.50
2018-04-10T23:37:50.817Z,12.65
2018-04-10T23:40:18.662Z,13.93
2018-04-10T23:42:46.456Z,15.75
2018-04-10T23:45:14.271Z,14.85
2018-04-10T23:47:42.130Z,13.55
2018-04-10T23:50:09.902Z,15.10
2018-04-10T23:52:37.703Z,13.05
2018-04-10T23:55:05.544Z,13.95
2018-04-10T23:57:33.345Z,13.75
